Terminal Aerodrome Forecast
Issued by NWS

Home | Current Version | Previous Version | Graphics & Text | Print | Product List | Glossary On
Versions: 1 2 3 4 5 6 7 8 9 10 11 12 13 14 15 16 17 18 19 20 21 22 23
471
FTUS43 KIWX 121120
TAFSBN
TAF
KSBN 121120Z 1212/1312 24008KT P6SM OVC050
     FM121500 28013G20KT 4SM -SHSN BKN020 OVC040
      TEMPO 1216/1219 1SM -SHSN
     FM121900 30018G27KT 3SM -SHSN BLSN OVC030
     FM130200 31016G24KT 1SM -SHSN BLSN SCT015 OVC030
     FM130800 30012KT 3SM -SHSN OVC035=

USA.gov is the U.S. government's official web portal to all federal, state and local government web resources and services.